createdAt,value
2022-12-22T00:03:59.066Z,83.47
2022-12-22T00:09:05.764Z,83.57
2022-12-22T00:19:36.272Z,83.16
2022-12-22T00:30:01.296Z,83.01
2022-12-22T00:35:04.102Z,82.97
2022-12-22T00:40:19.942Z,82.93
2022-12-22T00:50:47.919Z,82.71
2022-12-22T00:55:52.164Z,82.99
2022-12-22T01:00:55.171Z,83.17
2022-12-22T01:06:04.311Z,83.47
2022-12-22T01:11:07.503Z,83.71
2022-12-22T01:16:12.632Z,83.83
2022-12-22T01:21:21.404Z,83.91
2022-12-22T01:26:24.547Z,83.98
2022-12-22T01:31:30.693Z,83.90
2022-12-22T01:36:38.911Z,83.96
2022-12-22T01:47:29.539Z,83.92
2022-12-22T01:58:00.638Z,83.81
2022-12-22T02:03:04.195Z,84.09
2022-12-22T02:08:20.075Z,84.29
2022-12-22T02:19:04.059Z,84.05
2022-12-22T02:24:20.534Z,84.33
2022-12-22T02:29:33.124Z,84.45
2022-12-22T02:34:36.783Z,84.35
2022-12-22T02:39:54.779Z,84.35
2022-12-22T02:45:16.521Z,84.32
2022-12-22T02:50:27.921Z,84.32
2022-12-22T02:55:32.358Z,84.27
2022-12-22T03:00:41.478Z,84.33
2022-12-22T03:05:45.383Z,84.32
2022-12-22T03:10:48.129Z,84.32
2022-12-22T03:21:19.209Z,84.10
2022-12-22T03:31:42.319Z,84.02
2022-12-22T03:36:45.229Z,84.12
2022-12-22T03:41:48.524Z,84.02
2022-12-22T03:46:56.986Z,83.99
2022-12-22T03:52:00.858Z,83.99
2022-12-22T03:57:04.519Z,83.66
2022-12-22T04:02:13.503Z,83.40
2022-12-22T04:07:16.333Z,83.22
2022-12-22T04:12:20.070Z,83.11
2022-12-22T04:17:28.289Z,83.07
2022-12-22T04:22:31.256Z,83.19
2022-12-22T04:27:34.663Z,83.11
2022-12-22T04:37:58.482Z,83.19
2022-12-22T04:43:03.169Z,83.20
2022-12-22T04:48:07.583Z,83.26
2022-12-22T04:53:16.905Z,83.46
2022-12-22T04:58:20.700Z,83.56
2022-12-22T05:08:44.567Z,83.81
2022-12-22T05:19:08.064Z,84.27
2022-12-22T05:24:10.885Z,84.45
2022-12-22T05:34:35.140Z,84.31
2022-12-22T05:39:37.896Z,84.60
2022-12-22T05:44:43.243Z,84.70
2022-12-22T05:49:51.470Z,84.83
2022-12-22T05:54:54.647Z,85.21
2022-12-22T05:59:58.086Z,85.35
2022-12-22T06:05:08.150Z,85.50
2022-12-22T06:10:13.032Z,85.43
2022-12-22T06:15:17.749Z,85.84
2022-12-22T06:20:27.726Z,85.77
2022-12-22T06:30:53.004Z,85.95
2022-12-22T06:41:22.075Z,85.83
2022-12-22T06:46:26.104Z,86.03
2022-12-22T06:56:53.547Z,85.67
2022-12-22T07:01:56.587Z,85.84
2022-12-22T07:06:59.365Z,85.95
2022-12-22T07:12:08.893Z,86.05
2022-12-22T07:17:11.849Z,85.89
2022-12-22T07:32:54.000Z,85.54
2022-12-22T07:43:20.381Z,85.71
2022-12-22T07:48:24.335Z,85.78
2022-12-22T07:58:46.465Z,86.10
2022-12-22T08:03:51.441Z,85.92
2022-12-22T08:08:54.312Z,85.93
2022-12-22T08:14:03.627Z,85.96
2022-12-22T08:19:06.586Z,86.10
2022-12-22T08:29:35.652Z,85.58
2022-12-22T08:34:38.674Z,85.79
2022-12-22T08:39:45.199Z,86.19
2022-12-22T08:45:01.491Z,86.10
2022-12-22T08:50:05.906Z,86.01
2022-12-22T09:05:50.997Z,85.59
2022-12-22T09:10:53.784Z,85.99
2022-12-22T09:15:57.605Z,86.03
2022-12-22T09:21:06.945Z,86.01
2022-12-22T09:26:11.010Z,85.97
2022-12-22T09:31:14.515Z,85.97
2022-12-22T09:36:26.269Z,85.99
2022-12-22T09:41:34.801Z,86.10
2022-12-22T09:46:39.573Z,86.19
2022-12-22T09:51:52.036Z,86.01
2022-12-22T09:56:54.952Z,85.91
2022-12-22T10:02:13.321Z,85.90
2022-12-22T10:07:31.724Z,85.75
2022-12-22T10:12:34.520Z,85.61
2022-12-22T10:17:37.236Z,85.75
2022-12-22T10:22:50.044Z,85.59
2022-12-22T10:27:53.127Z,85.51
2022-12-22T10:33:05.536Z,85.51
2022-12-22T10:38:24.751Z,85.43
2022-12-22T10:43:37.760Z,85.33
2022-12-22T10:48:42.271Z,85.42
2022-12-22T10:53:54.265Z,85.35
2022-12-22T10:59:07.290Z,85.35
2022-12-22T11:04:18.060Z,85.32
2022-12-22T11:09:34.700Z,85.24
2022-12-22T11:14:51.944Z,85.12
2022-12-22T11:20:04.920Z,85.08
2022-12-22T11:36:41.069Z,84.86
2022-12-22T11:41:53.761Z,84.97
2022-12-22T11:47:07.067Z,85.10
2022-12-22T11:52:33.638Z,85.07
2022-12-22T11:57:45.808Z,84.81
2022-12-22T12:13:58.258Z,84.84
2022-12-22T12:19:28.490Z,84.84
2022-12-22T12:24:55.943Z,84.74
2022-12-22T12:30:37.473Z,84.80
2022-12-22T12:35:47.362Z,84.78
2022-12-22T12:40:57.503Z,84.78
2022-12-22T12:46:46.711Z,84.68
2022-12-22T12:51:53.393Z,84.37
2022-12-22T12:57:00.659Z,84.47
2022-12-22T13:02:43.379Z,84.47
2022-12-22T13:08:19.192Z,84.26
2022-12-22T13:13:52.356Z,84.34
2022-12-22T13:29:45.095Z,84.59
2022-12-22T13:40:23.281Z,84.93
2022-12-22T13:45:43.987Z,84.90
2022-12-22T13:50:50.907Z,84.65
2022-12-22T13:55:54.676Z,84.83
2022-12-22T14:01:17.660Z,84.76
2022-12-22T14:17:22.385Z,84.50
2022-12-22T14:22:34.889Z,84.68
2022-12-22T14:27:41.063Z,84.79
2022-12-22T14:32:55.194Z,84.70
2022-12-22T14:38:18.919Z,84.68
2022-12-22T14:54:23.528Z,84.29
2022-12-22T14:59:28.854Z,84.32
2022-12-22T15:04:32.546Z,84.35
2022-12-22T15:10:13.946Z,84.31
2022-12-22T15:15:03.895Z,84.38
2022-12-22T15:20:08.123Z,84.23
2022-12-22T15:36:01.918Z,83.85
2022-12-22T15:41:04.716Z,83.92
2022-12-22T15:46:08.021Z,83.73
2022-12-22T15:51:24.070Z,83.66
2022-12-22T15:56:31.297Z,83.73
2022-12-22T16:01:35.505Z,83.73
2022-12-22T16:06:43.958Z,83.63
2022-12-22T16:11:46.818Z,83.71
2022-12-22T16:16:50.109Z,83.54
2022-12-22T16:27:21.258Z,83.21
2022-12-22T18:00:06.031Z,82.81
2022-12-22T18:21:15.871Z,82.62
2022-12-22T18:51:39.849Z,82.60
2022-12-22T19:02:25.066Z,82.07
2022-12-22T19:45:37.714Z,82.36
